createdAt,value
2023-03-14T00:02:22.645Z,36.17
2023-03-14T00:04:51.213Z,50.27
2023-03-14T00:07:19.684Z,42.60
2023-03-14T00:09:48.108Z,35.37
2023-03-14T00:12:16.818Z,40.53
2023-03-14T00:14:45.252Z,43.20
2023-03-14T00:17:14.848Z,40.73
2023-03-14T00:19:44.655Z,40.60
2023-03-14T00:22:13.183Z,34.37
2023-03-14T00:24:41.555Z,34.97
2023-03-14T00:27:10.111Z,42.07
2023-03-14T00:29:38.546Z,35.27
2023-03-14T00:32:07.254Z,24.13
2023-03-14T00:34:36.004Z,14.37
2023-03-14T00:37:06.078Z,14.37
2023-03-14T00:39:34.535Z,10.00
2023-03-14T00:42:03.096Z,6.17
2023-03-14T00:44:31.728Z,8.90
2023-03-14T00:47:00.495Z,6.80
2023-03-14T00:49:29.349Z,4.50
2023-03-14T00:51:57.873Z,13.93
2023-03-14T00:54:27.750Z,8.57
2023-03-14T00:56:56.249Z,4.50
2023-03-14T00:59:24.729Z,13.10
2023-03-14T01:01:53.363Z,9.93
2023-03-14T01:04:21.821Z,13.03
2023-03-14T01:06:50.402Z,6.00
2023-03-14T01:09:19.089Z,9.70
2023-03-14T01:11:49.943Z,7.80
2023-03-14T01:14:19.295Z,10.67
2023-03-14T01:16:47.870Z,8.30
2023-03-14T01:19:16.398Z,6.60
2023-03-14T01:21:44.949Z,11.03
2023-03-14T01:24:14.063Z,10.57
2023-03-14T01:26:42.615Z,7.00
2023-03-14T01:29:12.834Z,8.37
2023-03-14T01:31:42.199Z,8.23
2023-03-14T01:34:10.622Z,9.43
2023-03-14T01:36:39.230Z,7.17
2023-03-14T01:39:09.100Z,5.80
2023-03-14T01:41:37.608Z,6.80
2023-03-14T01:44:06.210Z,11.50
2023-03-14T01:46:41.496Z,6.37
2023-03-14T01:49:16.998Z,8.30
2023-03-14T01:51:53.018Z,10.07
2023-03-14T01:54:27.193Z,8.10
2023-03-14T01:56:59.685Z,12.80
2023-03-14T01:59:31.084Z,7.63
2023-03-14T02:02:02.548Z,9.50
2023-03-14T02:04:36.970Z,12.20
2023-03-14T02:07:12.159Z,10.77
2023-03-14T02:09:47.096Z,11.43
2023-03-14T02:12:23.826Z,7.57
2023-03-14T02:15:11.549Z,6.47
2023-03-14T02:18:03.938Z,9.40
2023-03-14T02:20:55.139Z,9.33
2023-03-14T02:23:36.356Z,10.00
2023-03-14T02:26:12.142Z,6.93
2023-03-14T02:28:42.217Z,8.47
2023-03-14T02:31:11.091Z,4.47
2023-03-14T02:33:40.763Z,13.77
2023-03-14T02:36:13.967Z,10.43
2023-03-14T02:38:48.703Z,8.40
2023-03-14T02:41:17.622Z,6.30
2023-03-14T02:43:54.559Z,9.47
2023-03-14T02:46:23.923Z,9.30
2023-03-14T02:48:55.448Z,12.50
2023-03-14T02:51:25.496Z,9.90
2023-03-14T02:53:54.029Z,7.70
2023-03-14T02:56:24.415Z,15.27
2023-03-14T02:58:54.481Z,8.23
2023-03-14T03:01:39.806Z,7.90
2023-03-14T03:04:08.410Z,10.30
2023-03-14T03:06:36.798Z,8.53
2023-03-14T03:09:05.645Z,6.80
2023-03-14T03:11:34.139Z,7.77
2023-03-14T03:14:04.270Z,12.83
2023-03-14T03:16:32.838Z,5.67
2023-03-14T03:19:02.368Z,15.40
2023-03-14T03:21:30.854Z,9.10
2023-03-14T03:23:59.277Z,9.90
2023-03-14T03:26:27.826Z,8.87
2023-03-14T03:28:56.267Z,7.10
2023-03-14T03:31:27.257Z,5.97
2023-03-14T03:33:55.696Z,9.30
2023-03-14T03:36:24.594Z,5.17
2023-03-14T03:38:53.365Z,8.83
2023-03-14T03:41:22.194Z,5.63
2023-03-14T03:43:52.390Z,11.07
2023-03-14T03:46:21.495Z,10.43
2023-03-14T03:48:55.898Z,5.47
2023-03-14T03:51:24.481Z,4.53
2023-03-14T03:53:53.207Z,6.43
2023-03-14T03:56:28.833Z,11.67
2023-03-14T03:58:57.266Z,10.30
2023-03-14T04:01:26.473Z,8.50
2023-03-14T04:03:59.517Z,7.43
2023-03-14T04:06:29.004Z,6.43
2023-03-14T04:09:00.404Z,7.30
2023-03-14T04:11:43.337Z,5.73
2023-03-14T04:14:23.614Z,7.40
2023-03-14T04:17:02.657Z,7.30
2023-03-14T04:19:33.458Z,6.47
2023-03-14T04:22:02.085Z,9.83
2023-03-14T04:24:36.184Z,11.97
2023-03-14T04:27:05.008Z,5.70
2023-03-14T04:29:34.764Z,6.97
2023-03-14T04:32:03.319Z,7.50
2023-03-14T04:34:33.172Z,7.70
2023-03-14T04:37:01.690Z,9.70
2023-03-14T04:39:38.447Z,6.17
2023-03-14T04:42:26.746Z,11.57
2023-03-14T04:44:55.396Z,9.43
2023-03-14T04:47:26.980Z,10.63
2023-03-14T04:49:59.049Z,7.83
2023-03-14T04:52:29.287Z,6.60
2023-03-14T04:54:58.513Z,73.63
2023-03-14T04:57:28.653Z,8.17
2023-03-14T04:59:57.773Z,7.10
2023-03-14T05:02:49.489Z,9.00
2023-03-14T05:05:26.079Z,8.93
2023-03-14T05:08:06.580Z,8.60
2023-03-14T05:10:43.223Z,4.20
2023-03-14T05:13:30.154Z,5.07
2023-03-14T05:16:16.909Z,8.67
2023-03-14T05:18:53.643Z,8.40
2023-03-14T05:21:42.039Z,13.00
2023-03-14T05:24:30.592Z,8.40
2023-03-14T05:27:04.827Z,10.43
2023-03-14T05:30:10.365Z,8.10
2023-03-14T05:32:46.734Z,8.70
2023-03-14T05:35:33.700Z,5.47
2023-03-14T05:38:19.998Z,9.10
2023-03-14T05:41:07.525Z,10.50
2023-03-14T05:44:04.967Z,14.73
2023-03-14T05:46:56.635Z,6.80
2023-03-14T05:49:37.054Z,20.43
2023-03-14T05:52:19.146Z,7.67
2023-03-14T05:55:00.556Z,37.47
2023-03-14T05:57:47.712Z,10.20
2023-03-14T06:00:36.269Z,11.10
2023-03-14T06:03:18.437Z,11.70
2023-03-14T06:05:52.129Z,15.33
2023-03-14T06:08:22.350Z,11.83
2023-03-14T06:10:52.284Z,10.43
2023-03-14T06:13:25.892Z,13.80
2023-03-14T06:15:54.384Z,9.20
2023-03-14T06:18:23.026Z,10.50
2023-03-14T06:20:51.410Z,9.60
2023-03-14T06:23:26.808Z,8.70
2023-03-14T06:25:57.227Z,14.70
2023-03-14T06:28:27.284Z,10.30
2023-03-14T06:31:01.664Z,13.43
2023-03-14T06:33:35.464Z,11.37
2023-03-14T06:36:05.154Z,12.13
2023-03-14T06:38:34.854Z,12.70
2023-03-14T06:41:07.649Z,9.70
2023-03-14T06:43:41.156Z,11.43
2023-03-14T06:46:11.140Z,7.80
2023-03-14T06:48:42.013Z,10.20
2023-03-14T06:51:10.710Z,6.77
2023-03-14T06:53:39.505Z,9.80
2023-03-14T06:56:11.031Z,8.47
2023-03-14T06:58:39.667Z,10.13
2023-03-14T07:01:23.459Z,9.20
2023-03-14T07:03:52.778Z,8.37
2023-03-14T07:06:21.805Z,9.07
2023-03-14T07:08:50.516Z,10.53
2023-03-14T07:11:21.331Z,6.87
2023-03-14T07:13:50.200Z,11.33
2023-03-14T07:16:19.712Z,10.13
2023-03-14T07:18:50.536Z,8.30
2023-03-14T07:21:21.025Z,9.70
2023-03-14T07:23:50.385Z,9.93
2023-03-14T07:26:22.604Z,8.57
2023-03-14T07:28:54.010Z,9.87
2023-03-14T07:31:24.763Z,9.37
2023-03-14T07:33:54.809Z,9.43
2023-03-14T07:36:26.364Z,10.43
2023-03-14T07:38:55.400Z,8.10
2023-03-14T07:41:40.320Z,9.70
2023-03-14T07:44:27.349Z,12.13
2023-03-14T07:46:56.247Z,13.40
2023-03-14T07:49:25.027Z,5.70
2023-03-14T07:51:53.654Z,9.53
2023-03-14T07:54:22.603Z,10.27
2023-03-14T07:56:52.952Z,8.93
2023-03-14T07:59:22.093Z,9.63
2023-03-14T08:01:50.733Z,6.43
2023-03-14T08:04:19.690Z,11.57
2023-03-14T08:06:48.254Z,8.00
2023-03-14T08:09:17.006Z,11.10
2023-03-14T08:11:45.542Z,7.77
2023-03-14T08:14:15.414Z,12.07
2023-03-14T08:16:44.083Z,10.43
2023-03-14T08:19:12.714Z,8.47
2023-03-14T08:21:41.194Z,5.33
2023-03-14T08:24:10.247Z,6.33
2023-03-14T08:26:38.699Z,8.27
2023-03-14T08:29:08.242Z,6.70
2023-03-14T08:31:38.353Z,11.33
2023-03-14T08:34:07.818Z,8.07
2023-03-14T08:36:36.823Z,9.70
2023-03-14T08:39:08.366Z,6.80
2023-03-14T08:41:41.339Z,9.73
2023-03-14T08:44:10.298Z,8.30
2023-03-14T08:46:40.473Z,17.73
2023-03-14T08:49:08.923Z,6.67
2023-03-14T08:51:37.501Z,8.23
2023-03-14T08:54:05.952Z,10.30
2023-03-14T08:56:34.567Z,7.83
2023-03-14T08:59:02.998Z,11.10
2023-03-14T09:01:31.544Z,6.87
2023-03-14T09:04:01.635Z,10.87
2023-03-14T09:06:35.218Z,7.07
2023-03-14T09:09:04.142Z,7.83
2023-03-14T09:11:32.702Z,9.77
2023-03-14T09:14:01.330Z,13.87
2023-03-14T09:16:30.024Z,8.70
2023-03-14T09:19:00.712Z,6.97
2023-03-14T09:21:30.699Z,13.23
2023-03-14T09:23:59.213Z,8.77
2023-03-14T09:26:27.705Z,11.43
2023-03-14T09:28:58.562Z,8.90
2023-03-14T09:31:28.627Z,12.30
2023-03-14T09:33:57.191Z,7.13
2023-03-14T09:36:25.682Z,10.20
2023-03-14T09:38:55.594Z,11.43
2023-03-14T09:41:28.103Z,13.03
2023-03-14T09:44:05.001Z,9.50
2023-03-14T09:46:37.256Z,6.03
2023-03-14T09:49:13.421Z,10.80
2023-03-14T09:51:44.698Z,9.57
2023-03-14T09:54:28.992Z,6.07
2023-03-14T09:56:57.526Z,5.93
2023-03-14T09:59:27.340Z,4.40
2023-03-14T10:01:55.863Z,7.40
2023-03-14T10:04:25.345Z,4.93
2023-03-14T10:06:53.899Z,5.93
2023-03-14T10:09:26.394Z,5.53
2023-03-14T10:12:09.014Z,6.80
2023-03-14T10:14:39.869Z,4.03
2023-03-14T10:17:11.043Z,5.30
2023-03-14T10:19:52.263Z,6.87
2023-03-14T10:22:21.930Z,3.70
2023-03-14T10:24:55.300Z,8.70
2023-03-14T10:27:32.033Z,5.93
2023-03-14T10:30:02.883Z,5.43
2023-03-14T10:32:36.066Z,4.70
2023-03-14T10:35:22.167Z,6.50
2023-03-14T10:37:53.781Z,2.80
2023-03-14T10:40:29.244Z,3.47
2023-03-14T10:42:59.671Z,4.60
2023-03-14T10:45:34.860Z,5.63
2023-03-14T10:48:20.346Z,3.90
2023-03-14T10:50:57.801Z,4.20
2023-03-14T10:53:27.715Z,2.87
2023-03-14T10:55:59.162Z,4.87
2023-03-14T10:58:31.645Z,3.90
2023-03-14T11:01:11.446Z,3.27
2023-03-14T11:03:45.172Z,5.17
2023-03-14T11:06:19.404Z,5.83
2023-03-14T11:08:54.378Z,4.67
2023-03-14T11:11:26.469Z,3.43
2023-03-14T11:14:08.003Z,3.10
2023-03-14T11:16:46.291Z,2.90
2023-03-14T11:19:34.460Z,3.97
2023-03-14T11:22:11.401Z,3.97
2023-03-14T11:24:51.823Z,2.40
2023-03-14T11:27:25.150Z,3.97
2023-03-14T11:30:03.719Z,3.80
2023-03-14T11:32:43.330Z,7.17
2023-03-14T11:35:25.021Z,10.10
2023-03-14T11:37:57.798Z,18.83
2023-03-14T11:40:29.508Z,12.90
2023-03-14T11:43:08.312Z,16.23
2023-03-14T11:45:38.994Z,11.97
2023-03-14T11:48:19.994Z,10.10
2023-03-14T11:50:52.729Z,17.73
2023-03-14T11:53:24.820Z,14.80
2023-03-14T11:55:54.822Z,12.77
2023-03-14T11:58:28.142Z,6.43
2023-03-14T12:00:59.716Z,18.60
2023-03-14T12:03:37.479Z,10.23
2023-03-14T12:06:15.974Z,10.90
2023-03-14T12:08:48.619Z,14.70
2023-03-14T12:11:25.219Z,9.80
2023-03-14T12:13:56.344Z,14.33
2023-03-14T12:16:42.835Z,8.13
2023-03-14T12:19:37.154Z,7.13
2023-03-14T12:22:25.452Z,10.10
2023-03-14T12:24:58.944Z,17.33
2023-03-14T12:28:11.388Z,16.07
2023-03-14T12:30:43.257Z,14.30
2023-03-14T12:33:29.514Z,11.33
2023-03-14T12:36:20.665Z,14.17
2023-03-14T12:38:59.305Z,16.57
2023-03-14T12:41:31.674Z,17.33
2023-03-14T12:44:38.848Z,25.70
2023-03-14T12:47:42.883Z,15.93
2023-03-14T12:50:21.725Z,24.60
2023-03-14T12:53:23.281Z,16.43
2023-03-14T12:55:58.816Z,16.13
2023-03-14T12:58:33.639Z,15.83
2023-03-14T13:01:04.200Z,19.70
2023-03-14T13:03:42.517Z,14.57
2023-03-14T13:06:13.796Z,15.03
2023-03-14T13:08:44.374Z,13.83
2023-03-14T13:11:15.635Z,20.37
2023-03-14T13:13:48.472Z,20.60
2023-03-14T13:16:20.565Z,20.27
2023-03-14T13:18:50.462Z,21.77
2023-03-14T13:21:22.252Z,11.93
2023-03-14T13:23:59.489Z,17.23
2023-03-14T13:26:36.212Z,21.63
2023-03-14T13:29:12.322Z,15.17
2023-03-14T13:31:46.912Z,13.40
2023-03-14T13:34:15.898Z,14.50
2023-03-14T13:36:46.055Z,21.30
2023-03-14T13:39:18.178Z,15.03
2023-03-14T13:41:49.523Z,16.17
2023-03-14T13:44:20.491Z,18.10
2023-03-14T13:46:48.988Z,15.60
2023-03-14T13:49:24.160Z,14.60
2023-03-14T13:51:53.983Z,14.53
2023-03-14T13:54:24.398Z,12.13
2023-03-14T13:57:02.516Z,16.03
2023-03-14T13:59:32.466Z,15.33
2023-03-14T14:02:03.373Z,14.50
2023-03-14T14:04:37.540Z,20.47
2023-03-14T14:07:13.536Z,16.80
2023-03-14T14:09:44.611Z,15.27
2023-03-14T14:12:18.303Z,22.23
2023-03-14T14:14:51.114Z,14.37
2023-03-14T14:17:23.659Z,15.27
2023-03-14T14:19:53.568Z,17.03
2023-03-14T14:22:23.948Z,16.03
2023-03-14T14:24:53.502Z,22.10
2023-03-14T14:27:30.127Z,13.70
2023-03-14T14:30:05.030Z,12.27
2023-03-14T14:32:41.593Z,16.27
2023-03-14T14:35:23.351Z,12.63
2023-03-14T14:37:53.822Z,16.17
2023-03-14T14:40:25.772Z,13.40
2023-03-14T14:42:54.841Z,17.00
2023-03-14T14:45:25.348Z,10.77
2023-03-14T14:47:55.506Z,11.73
2023-03-14T14:50:31.530Z,12.93
2023-03-14T14:53:03.564Z,14.63
2023-03-14T14:55:35.051Z,17.10
2023-03-14T14:58:16.302Z,16.90
2023-03-14T15:00:54.743Z,14.83
2023-03-14T15:03:23.423Z,17.00
2023-03-14T15:05:51.870Z,18.33
2023-03-14T15:08:21.768Z,15.20
2023-03-14T15:10:50.730Z,12.40
2023-03-14T15:13:19.308Z,18.57
2023-03-14T15:15:48.515Z,12.73
2023-03-14T15:18:19.154Z,15.60
2023-03-14T15:20:48.334Z,18.10
2023-03-14T15:23:18.922Z,12.23
2023-03-14T15:25:57.238Z,13.43
2023-03-14T15:28:27.575Z,15.67
2023-03-14T15:30:57.716Z,13.67
2023-03-14T15:33:27.054Z,14.17
2023-03-14T15:35:55.838Z,10.57
2023-03-14T15:38:24.659Z,14.77
2023-03-14T15:40:55.208Z,13.60
2023-03-14T15:43:23.725Z,12.40
2023-03-14T15:45:52.378Z,16.23
2023-03-14T15:48:23.212Z,19.90
2023-03-14T15:50:51.862Z,15.33
2023-03-14T15:53:20.510Z,12.60
2023-03-14T15:55:49.042Z,10.47
2023-03-14T15:58:21.881Z,12.00
2023-03-14T16:00:51.467Z,14.40
2023-03-14T16:03:19.992Z,14.17
2023-03-14T16:05:48.836Z,18.60
2023-03-14T16:08:17.580Z,10.70
2023-03-14T16:10:47.072Z,16.57
2023-03-14T16:13:15.704Z,16.30
2023-03-14T16:15:55.070Z,27.23
2023-03-14T16:18:23.800Z,13.60
2023-03-14T16:20:57.105Z,14.13
2023-03-14T16:23:25.984Z,13.03
2023-03-14T16:25:55.431Z,22.80
2023-03-14T16:28:24.278Z,22.13
2023-03-14T16:30:55.346Z,17.33
2023-03-14T16:33:25.228Z,13.63
2023-03-14T16:35:57.267Z,13.90
2023-03-14T16:38:26.131Z,12.53
2023-03-14T16:40:59.285Z,11.77
2023-03-14T16:43:28.303Z,15.10
2023-03-14T16:46:00.947Z,16.30
2023-03-14T16:48:29.824Z,12.37
2023-03-14T16:50:58.810Z,17.47
2023-03-14T16:53:30.200Z,13.67
2023-03-14T16:56:00.857Z,14.07
2023-03-14T16:58:30.938Z,16.70
2023-03-14T17:01:10.600Z,14.83
2023-03-14T17:03:40.766Z,19.90
2023-03-14T17:06:11.990Z,14.77
2023-03-14T17:08:40.885Z,13.83
2023-03-14T17:11:09.550Z,16.10
2023-03-14T17:13:38.810Z,15.27
2023-03-14T17:16:09.609Z,21.67
2023-03-14T17:18:38.778Z,14.77
2023-03-14T17:21:07.882Z,16.13
2023-03-14T17:23:37.106Z,25.10
2023-03-14T17:26:06.238Z,14.80
2023-03-14T17:28:34.950Z,17.70
2023-03-14T17:31:05.713Z,20.13
2023-03-14T17:33:36.417Z,16.57
2023-03-14T17:36:05.583Z,13.80
2023-03-14T17:38:35.261Z,16.90
2023-03-14T17:41:03.833Z,13.90
2023-03-14T17:43:33.707Z,13.67
2023-03-14T17:46:06.374Z,13.13
2023-03-14T17:48:36.667Z,16.00
2023-03-14T17:51:05.702Z,15.13
2023-03-14T17:53:34.224Z,15.50
2023-03-14T17:56:03.244Z,14.97
2023-03-14T17:58:34.406Z,21.97
2023-03-14T18:01:11.336Z,19.63
2023-03-14T18:03:41.887Z,13.57
2023-03-14T18:06:15.537Z,15.23
2023-03-14T18:08:44.718Z,16.27
2023-03-14T18:11:13.994Z,19.87
2023-03-14T18:13:42.841Z,12.80
2023-03-14T18:16:15.205Z,16.90
2023-03-14T18:18:48.440Z,16.43
2023-03-14T18:21:17.719Z,18.23
2023-03-14T18:23:48.510Z,15.67
2023-03-14T18:26:17.292Z,16.40
2023-03-14T18:28:47.041Z,16.23
2023-03-14T18:31:19.034Z,13.90
2023-03-14T18:33:49.873Z,15.20
2023-03-14T18:36:18.502Z,13.60
2023-03-14T18:38:48.849Z,15.00
2023-03-14T18:41:20.072Z,17.60
2023-03-14T18:43:49.088Z,14.20
2023-03-14T18:46:17.643Z,15.00
2023-03-14T18:48:46.269Z,14.67
2023-03-14T18:51:17.289Z,18.87
2023-03-14T18:53:48.575Z,15.90
2023-03-14T18:56:18.666Z,20.37
2023-03-14T18:58:47.193Z,14.93
2023-03-14T19:01:17.641Z,17.63
2023-03-14T19:03:48.440Z,11.70
2023-03-14T19:06:20.195Z,17.53
2023-03-14T19:08:49.149Z,17.20
2023-03-14T19:11:18.267Z,17.50
2023-03-14T19:13:46.857Z,21.23
2023-03-14T19:16:16.947Z,17.33
2023-03-14T19:18:45.574Z,19.13
2023-03-14T19:21:15.729Z,19.20
2023-03-14T19:23:49.009Z,20.70
2023-03-14T19:26:18.697Z,16.87
2023-03-14T19:28:47.488Z,18.23
2023-03-14T19:31:16.453Z,22.23
2023-03-14T19:33:45.486Z,21.93
2023-03-14T19:36:25.599Z,20.43
2023-03-14T19:38:55.790Z,20.77
2023-03-14T19:41:26.358Z,25.20
2023-03-14T19:43:55.329Z,19.57
2023-03-14T19:46:24.850Z,22.47
2023-03-14T19:48:55.861Z,25.70
2023-03-14T19:51:25.436Z,28.73
2023-03-14T19:53:55.606Z,27.63
2023-03-14T19:56:24.531Z,24.90
2023-03-14T19:58:53.472Z,33.97
2023-03-14T20:01:24.462Z,29.57
2023-03-14T20:03:53.672Z,26.63
2023-03-14T20:06:22.500Z,29.43
2023-03-14T20:08:51.114Z,32.60
2023-03-14T20:11:21.040Z,32.90
2023-03-14T20:13:49.502Z,33.07
2023-03-14T20:16:18.272Z,33.60
2023-03-14T20:18:46.971Z,25.80
2023-03-14T20:21:15.922Z,35.90
2023-03-14T20:23:44.821Z,37.57
2023-03-14T20:26:13.797Z,30.63
2023-03-14T20:28:45.571Z,36.53
2023-03-14T20:31:15.289Z,34.37
2023-03-14T20:33:43.872Z,32.70
2023-03-14T20:36:12.639Z,44.07
2023-03-14T20:38:41.399Z,40.73
2023-03-14T20:41:11.064Z,35.23
2023-03-14T20:43:39.722Z,35.50
2023-03-14T20:46:10.824Z,29.30
2023-03-14T20:48:39.894Z,34.57
2023-03-14T20:51:08.472Z,32.10
2023-03-14T20:53:37.048Z,32.63
2023-03-14T20:56:06.252Z,30.40
2023-03-14T20:58:35.319Z,36.10
2023-03-14T21:03:51.459Z,30.20
2023-03-14T21:06:20.907Z,89.70
2023-03-14T21:08:51.233Z,124.07
2023-03-14T21:11:20.034Z,92.40
2023-03-14T21:13:49.094Z,58.97
2023-03-14T21:16:19.246Z,39.67
2023-03-14T21:18:48.291Z,46.20
2023-03-14T21:21:18.575Z,56.20
2023-03-14T21:23:47.586Z,52.93
2023-03-14T21:26:16.133Z,41.17
2023-03-14T21:28:44.952Z,35.27
2023-03-14T21:31:13.487Z,36.17
2023-03-14T21:33:42.393Z,34.83
2023-03-14T21:36:11.163Z,33.63
2023-03-14T21:38:41.266Z,35.50
2023-03-14T21:41:09.734Z,45.23
2023-03-14T21:43:38.429Z,35.33
2023-03-14T21:46:07.181Z,34.60
2023-03-14T21:48:35.672Z,44.70
2023-03-14T21:51:05.413Z,36.70
2023-03-14T21:53:34.043Z,37.23
2023-03-14T21:56:04.154Z,34.43
2023-03-14T21:58:35.588Z,34.53
2023-03-14T22:01:06.589Z,32.73
2023-03-14T22:03:35.744Z,31.30
2023-03-14T22:06:04.952Z,30.03
2023-03-14T22:08:33.523Z,31.93
2023-03-14T22:11:07.149Z,31.13
2023-03-14T22:13:35.707Z,29.30
2023-03-14T22:16:04.134Z,32.17
2023-03-14T22:18:32.638Z,27.00
2023-03-14T22:21:01.112Z,28.73
2023-03-14T22:23:29.666Z,27.30
2023-03-14T22:25:58.017Z,30.87
2023-03-14T22:28:27.968Z,29.47
2023-03-14T22:30:56.384Z,28.30
2023-03-14T22:33:24.904Z,28.53
2023-03-14T22:35:54.429Z,34.73
2023-03-14T22:38:22.964Z,32.47
2023-03-14T22:40:51.588Z,39.10
2023-03-14T22:43:20.106Z,33.03
2023-03-14T22:45:59.681Z,33.57
2023-03-14T22:48:28.532Z,34.53
2023-03-14T22:50:56.950Z,31.40
2023-03-14T22:53:25.408Z,35.57
2023-03-14T22:55:59.392Z,35.83
2023-03-14T22:58:29.096Z,35.30
2023-03-14T23:00:58.984Z,36.23
2023-03-14T23:03:27.815Z,35.03
2023-03-14T23:05:56.293Z,36.40
2023-03-14T23:08:24.892Z,37.70
2023-03-14T23:10:54.277Z,38.07
2023-03-14T23:13:23.701Z,43.10
2023-03-14T23:15:52.077Z,37.67
2023-03-14T23:18:21.930Z,42.30
2023-03-14T23:20:50.263Z,40.67
2023-03-14T23:23:18.701Z,50.83
2023-03-14T23:25:53.381Z,48.67
2023-03-14T23:28:23.198Z,44.00
2023-03-14T23:30:56.033Z,46.93
2023-03-14T23:33:27.082Z,50.30
2023-03-14T23:35:56.101Z,49.27
2023-03-14T23:38:26.989Z,53.30
2023-03-14T23:40:55.586Z,52.90
2023-03-14T23:43:24.588Z,51.60
2023-03-14T23:45:54.887Z,48.23
2023-03-14T23:48:26.079Z,50.23
2023-03-14T23:50:56.582Z,54.83
2023-03-14T23:53:26.224Z,55.20
2023-03-14T23:55:55.120Z,59.43
2023-03-14T23:58:24.169Z,55.50
